createdAt,value
2019-04-21T00:00:00.576Z,941.3
2019-04-21T00:03:18.009Z,941.4
2019-04-21T00:07:56.282Z,941.4
2019-04-21T00:11:02.563Z,941.3
2019-04-21T00:13:26.430Z,941.3
2019-04-21T00:15:38.280Z,940.4
2019-04-21T00:17:36.818Z,941.3
2019-04-21T00:21:00.860Z,941.3
2019-04-21T00:24:56.698Z,941.2
2019-04-21T00:28:03.094Z,939.7
2019-04-21T00:31:14.914Z,941.2
2019-04-21T00:33:13.747Z,941.1
2019-04-21T00:35:29.745Z,941.2
2019-04-21T00:40:27.030Z,941.2
2019-04-21T00:42:55.255Z,941.2
2019-04-21T00:45:11.444Z,939.7
2019-04-21T00:48:40.729Z,941
2019-04-21T00:52:20.701Z,941.1
2019-04-21T00:58:01.842Z,941
2019-04-21T01:00:06.763Z,941.1
2019-04-21T01:03:37.085Z,941
2019-04-21T01:06:41.417Z,941.1
2019-04-21T01:09:07.457Z,941
2019-04-21T01:11:54.866Z,940.9
2019-04-21T01:15:30.427Z,940.9
2019-04-21T01:18:16.125Z,941
2019-04-21T01:20:17.124Z,940.9
2019-04-21T01:21:44.817Z,940.9
2019-04-21T01:25:25.492Z,940.9
2019-04-21T01:32:34.169Z,940.6
2019-04-21T01:35:32.737Z,940.8
2019-04-21T01:38:34.074Z,940.8
2019-04-21T01:41:31.171Z,940.8
2019-04-21T01:44:12.003Z,940.6
2019-04-21T01:46:51.684Z,940.7
2019-04-21T01:49:26.279Z,940.6
2019-04-21T01:53:36.261Z,940.6
2019-04-21T01:56:00.187Z,940.7
2019-04-21T01:58:25.337Z,940.5
2019-04-21T02:01:12.677Z,940.5
2019-04-21T02:05:09.953Z,940.5
2019-04-21T02:07:48.966Z,940.5
2019-04-21T02:10:34.103Z,940.4
2019-04-21T02:13:21.228Z,940.5
2019-04-21T02:16:40.280Z,940.4
2019-04-21T02:19:04.219Z,940.4
2019-04-21T02:21:03.569Z,940.3
2019-04-21T02:25:08.107Z,940.3
2019-04-21T02:28:19.143Z,940.2
2019-04-21T02:31:55.215Z,940.2
2019-04-21T02:34:40.072Z,940.3
2019-04-21T02:40:38.276Z,940.2
2019-04-21T02:46:37.172Z,940.1
2019-04-21T02:49:34.226Z,940.1
2019-04-21T02:52:19.826Z,940.1
2019-04-21T02:58:05.577Z,940.1
2019-04-21T03:00:54.655Z,940.1
2019-04-21T03:09:49.249Z,940
2019-04-21T03:12:37.428Z,939.9
2019-04-21T03:16:06.594Z,939.8
2019-04-21T03:18:39.353Z,939.9
2019-04-21T03:21:20.272Z,939.8
2019-04-21T03:24:28.794Z,939.8
2019-04-21T03:30:55.259Z,939.9
2019-04-21T03:41:37.535Z,939.7
2019-04-21T03:45:11.981Z,939.7
2019-04-21T03:51:02.504Z,939.5
2019-04-21T03:53:53.261Z,939.6
2019-04-21T03:56:58.660Z,939.3
2019-04-21T03:59:23.997Z,939.6
2019-04-21T04:02:41.146Z,939.5
2019-04-21T04:14:12.510Z,939.3
2019-04-21T04:17:16.298Z,939.5
2019-04-21T04:19:53.341Z,939.5
2019-04-21T04:22:47.918Z,939.6
2019-04-21T04:28:45.810Z,939.6
2019-04-21T04:31:47.265Z,939.5
2019-04-21T04:37:36.031Z,939.5
2019-04-21T04:40:30.474Z,939.5
2019-04-21T04:49:23.374Z,939.5
2019-04-21T04:54:01.466Z,939.5
2019-04-21T04:57:52.687Z,939.4
2019-04-21T05:06:45.719Z,939.4
2019-04-21T05:12:22.492Z,939.4
2019-04-21T05:15:07.236Z,939.4
2019-04-21T05:18:24.095Z,939.3
2019-04-21T05:21:29.584Z,939.3
2019-04-21T05:23:31.040Z,939.3
2019-04-21T05:25:45.518Z,939.3
2019-04-21T05:28:22.871Z,939.3
2019-04-21T05:32:12.413Z,939.4
2019-04-21T05:35:01.363Z,939.3
2019-04-21T05:37:34.658Z,939.3
2019-04-21T05:40:13.696Z,939.2
2019-04-21T05:42:45.284Z,939.3
2019-04-21T05:47:07.534Z,939.1
2019-04-21T05:49:13.747Z,939.3
2019-04-21T05:52:02.363Z,939.2
2019-04-21T05:55:43.386Z,939.3
2019-04-21T05:58:11.064Z,939.2
2019-04-21T06:01:46.157Z,939.2
2019-04-21T06:04:46.694Z,939.3
2019-04-21T06:07:28.361Z,939.1
2019-04-21T06:10:04.329Z,939.1
2019-04-21T06:13:11.292Z,939.2
2019-04-21T06:16:06.954Z,939.3
2019-04-21T06:18:57.865Z,939.3
2019-04-21T06:22:07.407Z,939.2
2019-04-21T06:25:10.594Z,939.3
2019-04-21T06:28:18.998Z,939.3
2019-04-21T06:30:30.738Z,939.2
2019-04-21T06:34:03.393Z,939.2
2019-04-21T06:37:34.074Z,939.3
2019-04-21T06:40:01.398Z,939.3
2019-04-21T06:42:49.901Z,939.2
2019-04-21T06:45:46.857Z,939.2
2019-04-21T06:48:32.508Z,939.2
2019-04-21T06:51:22.141Z,939.3
2019-04-21T06:54:39.858Z,939.2
2019-04-21T06:57:16.380Z,939.2
2019-04-21T06:59:59.700Z,939.3
2019-04-21T07:03:40.051Z,939.4
2019-04-21T07:06:12.330Z,939.3
2019-04-21T07:09:01.843Z,938.9
2019-04-21T07:11:36.517Z,939.3
2019-04-21T07:14:19.235Z,939.2
2019-04-21T07:17:49.741Z,939.2
2019-04-21T07:20:52.936Z,939.1
2019-04-21T07:23:36.681Z,939.1
2019-04-21T07:26:36.154Z,939
2019-04-21T07:29:47.244Z,938.9
2019-04-21T07:32:47.154Z,938.9
2019-04-21T07:35:31.539Z,939
2019-04-21T07:38:09.463Z,939
2019-04-21T07:40:41.551Z,939
2019-04-21T07:43:23.202Z,939
2019-04-21T07:46:14.092Z,938.7
2019-04-21T07:49:57.285Z,938.9
2019-04-21T07:53:13.992Z,938.9
2019-04-21T07:58:00.115Z,938.9
2019-04-21T08:02:08.310Z,938.9
2019-04-21T08:05:12.844Z,938.8
2019-04-21T08:07:47.311Z,938.9
2019-04-21T08:10:20.873Z,937.9
2019-04-21T08:12:07.859Z,938.9
2019-04-21T08:16:29.636Z,938.8
2019-04-21T08:19:06.786Z,938.6
2019-04-21T08:22:15.328Z,938.8
2019-04-21T08:25:02.682Z,938.6
2019-04-21T08:28:25.766Z,938.7
2019-04-21T08:31:07.821Z,938.8
2019-04-21T08:34:21.336Z,938.7
2019-04-21T08:37:23.942Z,938.7
2019-04-21T08:39:54.744Z,938.6
2019-04-21T08:42:44.530Z,938.5
2019-04-21T08:45:41.254Z,938.7
2019-04-21T08:48:41.881Z,938.6
2019-04-21T08:51:48.113Z,938.5
2019-04-21T08:54:32.094Z,938.4
2019-04-21T08:57:50.295Z,938.5
2019-04-21T09:00:46.613Z,938.6
2019-04-21T09:03:21.131Z,938.6
2019-04-21T09:06:22.022Z,938.5
2019-04-21T09:09:03.432Z,938.5
2019-04-21T09:12:03.891Z,938.5
2019-04-21T09:14:59.647Z,938.5
2019-04-21T09:17:24.769Z,938.4
2019-04-21T09:21:04.319Z,938.5
2019-04-21T09:23:38.075Z,938.4
2019-04-21T09:26:39.302Z,938.3
2019-04-21T09:29:10.673Z,938.3
2019-04-21T09:31:05.237Z,938.3
2019-04-21T09:34:03.073Z,938.2
2019-04-21T09:39:50.735Z,938.3
2019-04-21T09:43:04.567Z,938.2
2019-04-21T09:45:26.314Z,938.2
2019-04-21T09:48:28.517Z,938.1
2019-04-21T09:51:09.379Z,938.2
2019-04-21T09:54:41.006Z,938
2019-04-21T09:57:46.428Z,938.1
2019-04-21T10:00:29.007Z,938
2019-04-21T10:03:19.696Z,938
2019-04-21T10:05:50.054Z,937.9
2019-04-21T10:09:07.627Z,937.9
2019-04-21T10:11:42.334Z,937.8
2019-04-21T10:14:38.667Z,937.9
2019-04-21T10:17:35.137Z,937.8
2019-04-21T10:20:29.209Z,937.8
2019-04-21T10:23:25.778Z,937.8
2019-04-21T10:26:20.425Z,937.7
2019-04-21T10:29:39.646Z,937.6
2019-04-21T10:32:13.838Z,937.5
2019-04-21T10:35:08.270Z,937.5
2019-04-21T10:38:52.069Z,937.6
2019-04-21T10:41:01.290Z,937.5
2019-04-21T10:43:56.203Z,937.5
2019-04-21T10:46:56.299Z,937.5
2019-04-21T10:49:49.048Z,937.4
2019-04-21T10:52:45.017Z,937.3
2019-04-21T10:56:36.933Z,937.2
2019-04-21T10:58:38.399Z,937.2
2019-04-21T11:01:32.226Z,937.1
2019-04-21T11:04:43.626Z,937.2
2019-04-21T11:08:15.271Z,937.2
2019-04-21T11:10:20.660Z,937.1
2019-04-21T11:13:16.715Z,937.2
2019-04-21T11:16:13.374Z,937.1
2019-04-21T11:19:07.048Z,937.1
2019-04-21T11:22:05.172Z,937
2019-04-21T11:25:00.519Z,937.1
2019-04-21T11:27:55.972Z,936.9
2019-04-21T11:30:53.362Z,937
2019-04-21T11:33:47.507Z,937
2019-04-21T11:36:43.789Z,936.9
2019-04-21T11:40:14.125Z,937
2019-04-21T11:42:35.883Z,936.6
2019-04-21T11:45:34.515Z,936.8
2019-04-21T11:48:28.681Z,936.9
2019-04-21T11:51:23.147Z,936.8
2019-04-21T11:54:19.267Z,936.8
2019-04-21T11:57:44.717Z,936.6
2019-04-21T12:00:11.381Z,936.8
2019-04-21T12:03:06.454Z,936.8
2019-04-21T12:06:03.957Z,936.7
2019-04-21T12:09:09.935Z,936.8
2019-04-21T12:11:53.985Z,936.7
2019-04-21T12:14:50.122Z,936.7
2019-04-21T12:17:46.236Z,936.7
2019-04-21T12:20:40.432Z,936.7
2019-04-21T12:23:38.615Z,936.6
2019-04-21T12:26:34.045Z,936.7
2019-04-21T12:29:30.636Z,936.7
2019-04-21T12:32:24.751Z,936.5
2019-04-21T12:35:21.982Z,936.5
2019-04-21T12:38:28.266Z,936.5
2019-04-21T12:41:13.041Z,936.5
2019-04-21T12:44:09.083Z,936.5
2019-04-21T12:47:03.797Z,935.2
2019-04-21T12:49:59.381Z,936.3
2019-04-21T12:52:55.831Z,936.3
2019-04-21T12:55:52.018Z,936.2
2019-04-21T12:58:45.349Z,936.1
2019-04-21T13:01:43.305Z,936.2
2019-04-21T13:04:38.224Z,936.1
2019-04-21T13:07:33.820Z,936.1
2019-04-21T13:10:30.430Z,936.1
2019-04-21T13:13:26.288Z,936
2019-04-21T13:16:21.429Z,934.8
2019-04-21T13:19:17.401Z,936
2019-04-21T13:22:14.416Z,935.9
2019-04-21T13:25:09.599Z,936
2019-04-21T13:28:05.197Z,935.9
2019-04-21T13:31:00.343Z,935.8
2019-04-21T13:33:56.143Z,935.8
2019-04-21T13:36:52.071Z,935.8
2019-04-21T13:41:29.201Z,935.7
2019-04-21T13:43:06.554Z,935.7
2019-04-21T13:45:39.675Z,935.7
2019-04-21T13:48:36.747Z,935.7
2019-04-21T13:51:31.331Z,935.6
2019-04-21T13:54:27.696Z,935.6
2019-04-21T13:57:22.989Z,935.6
2019-04-21T14:00:19.746Z,935.5
2019-04-21T14:03:16.374Z,935.6
2019-04-21T14:06:09.254Z,935.6
2019-04-21T14:09:05.536Z,935.4
2019-04-21T14:12:01.269Z,935.5
2019-04-21T14:14:57.216Z,935.5
2019-04-21T14:17:53.385Z,935.5
2019-04-21T14:20:47.632Z,935.4
2019-04-21T14:23:57.743Z,935.4
2019-04-21T14:26:40.786Z,935.3
2019-04-21T14:29:37.798Z,935.4
2019-04-21T14:32:31.936Z,935.4
2019-04-21T14:35:27.422Z,935.3
2019-04-21T14:38:25.145Z,934.3
2019-04-21T14:41:18.186Z,935.4
2019-04-21T14:44:15.622Z,935.3
2019-04-21T14:47:11.443Z,935.3
2019-04-21T14:50:07.432Z,935.1
2019-04-21T14:53:03.915Z,935.2
2019-04-21T14:55:57.834Z,935.2
2019-04-21T14:59:05.288Z,935.1
2019-04-21T15:01:47.912Z,934.9
2019-04-21T15:04:46.224Z,935
2019-04-21T15:07:41.518Z,935
2019-04-21T15:10:37.066Z,934.8
2019-04-21T15:13:32.658Z,935
2019-04-21T15:16:28.982Z,934.9
2019-04-21T15:19:24.594Z,934.9
2019-04-21T15:22:20.602Z,934.8
2019-04-21T15:25:14.537Z,935.1
2019-04-21T15:28:11.594Z,935
2019-04-21T15:31:05.935Z,934.8
2019-04-21T15:34:03.438Z,934.9
2019-04-21T15:37:00.162Z,934.9
2019-04-21T15:39:53.772Z,934.7
2019-04-21T15:42:50.680Z,934.8
2019-04-21T15:45:46.762Z,934.7
2019-04-21T15:48:41.877Z,934.7
2019-04-21T15:51:38.240Z,934.7
2019-04-21T15:54:34.553Z,934.7
2019-04-21T15:57:28.297Z,934.7
2019-04-21T16:00:26.686Z,934.6
2019-04-21T16:03:22.740Z,934.7
2019-04-21T16:06:15.557Z,934.6
2019-04-21T16:09:32.299Z,934.7
2019-04-21T16:12:09.896Z,934.6
2019-04-21T16:15:05.297Z,934.7
2019-04-21T16:18:01.876Z,934.6
2019-04-21T16:20:56.067Z,934.6
2019-04-21T16:23:51.408Z,934
2019-04-21T16:26:48.903Z,934.6
2019-04-21T16:29:45.716Z,934.6
2019-04-21T16:32:39.062Z,934.6
2019-04-21T16:35:35.961Z,934.5
2019-04-21T16:38:31.573Z,934.6
2019-04-21T16:41:26.600Z,934.6
2019-04-21T16:44:23.393Z,933.7
2019-04-21T16:47:19.209Z,934.5
2019-04-21T16:50:14.015Z,934.4
2019-04-21T16:53:10.509Z,934.4
2019-04-21T16:56:07.048Z,934.4
2019-04-21T16:59:01.153Z,934.5
2019-04-21T17:01:56.873Z,934.5
2019-04-21T17:04:54.235Z,934.2
2019-04-21T17:07:49.451Z,934.4
2019-04-21T17:12:57.866Z,934.5
2019-04-21T17:13:40.196Z,934.5
2019-04-21T17:18:36.583Z,933.8
2019-04-21T17:20:11.568Z,934.5
2019-04-21T17:22:28.285Z,934.5
2019-04-21T17:25:29.977Z,934.4
2019-04-21T17:28:19.521Z,934.4
2019-04-21T17:31:13.556Z,934.4
2019-04-21T17:34:32.360Z,934.2
2019-04-21T17:37:05.848Z,934.4
2019-04-21T17:40:09.310Z,934.4
2019-04-21T17:43:19.716Z,934.4
2019-04-21T17:45:53.398Z,934.3
2019-04-21T17:48:49.501Z,934.4
2019-04-21T17:52:11.415Z,934.4
2019-04-21T17:55:17.025Z,934.4
2019-04-21T17:59:09.208Z,934.4
2019-04-21T18:02:47.433Z,934.4
2019-04-21T18:05:31.771Z,934.5
2019-04-21T18:07:59.711Z,933.5
2019-04-21T18:11:00.024Z,934.5
2019-04-21T18:13:08.494Z,934.5
2019-04-21T18:16:28.466Z,934.4
2019-04-21T18:18:05.494Z,933.3
2019-04-21T18:21:01.157Z,934.5
2019-04-21T18:24:45.849Z,934.4
2019-04-21T18:27:11.345Z,934.5
2019-04-21T18:29:48.099Z,934.5
2019-04-21T18:32:44.570Z,934.4
2019-04-21T18:35:58.539Z,934.5
2019-04-21T18:40:02.282Z,934.5
2019-04-21T18:41:32.336Z,934.5
2019-04-21T18:47:03.460Z,934.5
2019-04-21T18:48:34.386Z,934.6
2019-04-21T18:50:16.851Z,934.7
2019-04-21T18:54:54.613Z,934.6
2019-04-21T18:56:21.079Z,934.7
2019-04-21T18:59:04.751Z,934.7
2019-04-21T19:02:24.026Z,934.7
2019-04-21T19:05:22.911Z,934.7
2019-04-21T19:09:34.915Z,934.7
2019-04-21T19:13:18.984Z,934.7
2019-04-21T19:21:24.075Z,934.7
2019-04-21T19:24:40.950Z,934.7
2019-04-21T19:27:36.297Z,934.7
2019-04-21T19:30:39.717Z,934.7
2019-04-21T19:33:02.472Z,934.7
2019-04-21T19:34:45.238Z,934.6
2019-04-21T19:37:38.300Z,934.7
2019-04-21T19:41:20.234Z,934.7
2019-04-21T19:44:37.777Z,934.7
2019-04-21T19:47:48.296Z,934.6
2019-04-21T19:50:50.066Z,934.7
2019-04-21T19:52:43.440Z,934.5
2019-04-21T19:54:54.904Z,934.6
2019-04-21T19:57:35.007Z,934.4
2019-04-21T20:00:28.863Z,934.7
2019-04-21T20:03:26.650Z,934.6
2019-04-21T20:07:22.660Z,934.5
2019-04-21T20:11:18.967Z,934.5
2019-04-21T20:14:58.978Z,934.5
2019-04-21T20:17:04.185Z,934.3
2019-04-21T20:18:52.838Z,934.4
2019-04-21T20:20:58.952Z,934.5
2019-04-21T20:24:27.956Z,934.5
2019-04-21T20:27:55.238Z,933.3
2019-04-21T20:31:18.716Z,934.2
2019-04-21T20:34:55.458Z,934.4
2019-04-21T20:37:14.337Z,934.4
2019-04-21T20:39:18.940Z,934.3
2019-04-21T20:42:42.213Z,934.3
2019-04-21T20:46:24.492Z,934.3
2019-04-21T20:47:57.631Z,934.2
2019-04-21T20:51:51.075Z,934.3
2019-04-21T20:54:44.718Z,934.3
2019-04-21T20:57:29.784Z,934.3
2019-04-21T21:00:29.822Z,934.3
2019-04-21T21:03:43.010Z,934.3
2019-04-21T21:05:58.005Z,934.3
2019-04-21T21:09:38.999Z,934.3
2019-04-21T21:15:07.156Z,934.3
2019-04-21T21:19:16.406Z,934.2
2019-04-21T21:21:04.394Z,934.2
2019-04-21T21:23:36.981Z,934.3
2019-04-21T21:27:19.019Z,934.2
2019-04-21T21:29:40.050Z,933.7
2019-04-21T21:33:00.408Z,934
2019-04-21T21:35:46.084Z,934.1
2019-04-21T21:41:10.765Z,934.1
2019-04-21T21:42:51.459Z,934.1
2019-04-21T21:46:33.976Z,934
2019-04-21T21:49:55.252Z,933.9
2019-04-21T21:52:47.287Z,933.9
2019-04-21T21:54:34.122Z,933.9
2019-04-21T21:57:28.301Z,933.7
2019-04-21T22:00:24.233Z,933.9
2019-04-21T22:03:48.785Z,933.8
2019-04-21T22:06:55.210Z,933.8
2019-04-21T22:09:10.634Z,933.6
2019-04-21T22:12:14.309Z,933.8
2019-04-21T22:15:29.840Z,933.7
2019-04-21T22:19:50.800Z,933.7
2019-04-21T22:22:30.881Z,933.7
2019-04-21T22:24:55.453Z,933.7
2019-04-21T22:26:41.242Z,933.6
2019-04-21T22:30:03.785Z,933.6
2019-04-21T22:32:55.391Z,933.5
2019-04-21T22:36:20.843Z,933.1
2019-04-21T22:40:04.299Z,933.6
2019-04-21T22:42:00.655Z,933.4
2019-04-21T22:44:14.313Z,933.5
2019-04-21T22:47:39.303Z,933.5
2019-04-21T22:50:04.803Z,933.5
2019-04-21T22:53:15.805Z,933.5
2019-04-21T22:56:33.122Z,933.4
2019-04-21T22:58:54.895Z,933.3
2019-04-21T23:01:57.573Z,933.5
2019-04-21T23:05:02.468Z,933.5
2019-04-21T23:08:07.087Z,933.4
2019-04-21T23:10:31.666Z,933.4
2019-04-21T23:13:34.603Z,933.4
2019-04-21T23:16:45.557Z,933.3
2019-04-21T23:21:01.348Z,933.4
2019-04-21T23:24:08.299Z,933.3
2019-04-21T23:26:41.815Z,933.1
2019-04-21T23:30:13.060Z,933.2
2019-04-21T23:32:33.717Z,933.3
2019-04-21T23:33:52.952Z,933.2
2019-04-21T23:37:25.703Z,933.2
2019-04-21T23:39:43.814Z,933.2
2019-04-21T23:42:47.370Z,933.1
2019-04-21T23:45:50.525Z,933.2
2019-04-21T23:49:50.467Z,933.1
2019-04-21T23:52:10.061Z,933.1
2019-04-21T23:54:19.427Z,933.1
2019-04-21T23:57:49.817Z,932.9
